createdAt,value
2023-06-11T00:00:23.044Z,4.83
2023-06-11T00:02:56.082Z,4.90
2023-06-11T00:05:26.132Z,5.13
2023-06-11T00:07:57.202Z,5.10
2023-06-11T00:10:27.608Z,5.00
2023-06-11T00:12:57.789Z,5.20
2023-06-11T00:15:27.330Z,4.77
2023-06-11T00:17:56.413Z,4.77
2023-06-11T00:20:26.972Z,5.27
2023-06-11T00:22:55.893Z,5.27
2023-06-11T00:25:24.908Z,5.43
2023-06-11T00:27:55.583Z,5.20
2023-06-11T00:30:25.473Z,5.60
2023-06-11T00:32:55.327Z,5.30
2023-06-11T00:35:24.442Z,5.63
2023-06-11T00:37:53.546Z,5.30
2023-06-11T00:40:22.371Z,5.60
2023-06-11T00:42:52.132Z,5.43
2023-06-11T00:45:23.773Z,5.37
2023-06-11T00:47:53.388Z,6.07
2023-06-11T00:50:22.494Z,5.07
2023-06-11T00:52:51.736Z,5.40
2023-06-11T00:55:20.746Z,5.73
2023-06-11T00:57:50.475Z,4.93
2023-06-11T01:00:19.919Z,5.20
2023-06-11T01:02:55.122Z,5.10
2023-06-11T01:05:25.829Z,5.23
2023-06-11T01:07:57.020Z,5.47
2023-06-11T01:10:35.076Z,5.70
2023-06-11T01:13:04.823Z,5.77
2023-06-11T01:15:34.275Z,5.17
2023-06-11T01:18:08.331Z,6.00
2023-06-11T01:20:40.823Z,6.13
2023-06-11T01:23:22.887Z,6.53
2023-06-11T01:25:57.994Z,6.30
2023-06-11T01:28:32.477Z,6.13
2023-06-11T01:31:03.678Z,5.63
2023-06-11T01:33:37.387Z,5.53
2023-06-11T01:36:12.248Z,5.93
2023-06-11T01:38:44.007Z,6.17
2023-06-11T01:41:19.566Z,5.80
2023-06-11T01:43:50.990Z,5.53
2023-06-11T01:46:20.153Z,6.40
2023-06-11T01:48:49.635Z,5.80
2023-06-11T01:51:18.688Z,6.00
2023-06-11T01:53:48.159Z,6.20
2023-06-11T01:56:17.175Z,6.07
2023-06-11T01:58:48.020Z,6.30
2023-06-11T02:01:21.999Z,6.47
2023-06-11T02:03:51.302Z,6.07
2023-06-11T02:06:20.217Z,6.67
2023-06-11T02:08:49.420Z,6.80
2023-06-11T02:11:18.220Z,6.93
2023-06-11T02:13:47.561Z,8.07
2023-06-11T02:16:16.591Z,6.93
2023-06-11T02:18:47.447Z,7.50
2023-06-11T02:21:16.697Z,7.50
2023-06-11T02:23:45.832Z,8.27
2023-06-11T02:26:15.481Z,7.50
2023-06-11T02:28:44.589Z,7.50
2023-06-11T02:31:13.532Z,8.30
2023-06-11T02:33:42.555Z,7.60
2023-06-11T02:36:13.196Z,9.33
2023-06-11T02:38:42.442Z,8.80
2023-06-11T02:41:11.447Z,9.40
2023-06-11T02:43:40.479Z,9.50
2023-06-11T02:46:09.514Z,9.23
2023-06-11T02:48:38.456Z,9.20
2023-06-11T02:51:09.852Z,9.43
2023-06-11T02:53:40.730Z,9.17
2023-06-11T02:56:09.706Z,9.73
2023-06-11T02:58:38.756Z,8.80
2023-06-11T03:01:07.618Z,9.13
2023-06-11T03:03:37.285Z,9.10
2023-06-11T03:06:06.499Z,8.10
2023-06-11T03:08:36.225Z,7.80
2023-06-11T03:11:06.782Z,8.33
2023-06-11T03:13:40.015Z,9.00
2023-06-11T03:16:08.984Z,8.67
2023-06-11T03:18:38.308Z,9.53
2023-06-11T03:21:07.493Z,8.63
2023-06-11T03:23:36.857Z,9.20
2023-06-11T03:26:07.346Z,8.93
2023-06-11T03:28:42.508Z,9.10
2023-06-11T03:31:12.061Z,9.70
2023-06-11T03:33:41.243Z,10.13
2023-06-11T03:36:10.784Z,10.07
2023-06-11T03:38:39.869Z,10.60
2023-06-11T03:41:13.476Z,9.80
2023-06-11T03:43:42.865Z,9.33
2023-06-11T03:46:12.045Z,10.17
2023-06-11T03:48:41.884Z,9.67
2023-06-11T03:51:11.132Z,10.23
2023-06-11T03:53:40.283Z,10.40
2023-06-11T03:56:09.332Z,11.53
2023-06-11T03:58:39.880Z,12.40
2023-06-11T04:01:08.995Z,11.43
2023-06-11T04:03:38.279Z,12.10
2023-06-11T04:06:08.419Z,12.27
2023-06-11T04:08:38.428Z,12.50
2023-06-11T04:11:07.580Z,12.67
2023-06-11T04:13:38.082Z,12.80
2023-06-11T04:16:08.477Z,13.13
2023-06-11T04:18:37.616Z,12.77
2023-06-11T04:21:06.766Z,13.07
2023-06-11T04:23:36.650Z,13.00
2023-06-11T04:26:09.176Z,12.93
2023-06-11T04:28:42.199Z,12.40
2023-06-11T04:31:13.620Z,12.20
2023-06-11T04:33:43.097Z,12.60
2023-06-11T04:36:12.860Z,12.97
2023-06-11T04:38:46.354Z,12.67
2023-06-11T04:41:18.718Z,13.27
2023-06-11T04:43:53.705Z,13.40
2023-06-11T04:46:24.527Z,12.30
2023-06-11T04:48:54.790Z,12.57
2023-06-11T04:51:24.801Z,11.97
2023-06-11T04:53:55.702Z,12.83
2023-06-11T04:56:25.353Z,12.60
2023-06-11T04:58:56.544Z,12.07
2023-06-11T05:01:33.675Z,12.03
2023-06-11T05:04:04.922Z,11.60
2023-06-11T05:06:37.207Z,10.93
2023-06-11T05:09:07.487Z,11.63
2023-06-11T05:11:36.635Z,11.93
2023-06-11T05:14:05.805Z,11.53
2023-06-11T05:16:38.422Z,11.63
2023-06-11T05:19:08.471Z,11.33
2023-06-11T05:21:42.289Z,11.00
2023-06-11T05:24:20.519Z,11.05
2023-06-11T05:26:51.822Z,11.17
2023-06-11T05:29:20.782Z,11.45
2023-06-11T05:31:52.380Z,10.55
2023-06-11T05:34:24.679Z,10.87
2023-06-11T05:36:53.737Z,10.80
2023-06-11T05:39:23.146Z,10.93
2023-06-11T05:41:52.456Z,10.85
2023-06-11T05:44:26.120Z,11.05
2023-06-11T05:46:58.812Z,10.18
2023-06-11T05:49:28.741Z,10.10
2023-06-11T05:51:57.605Z,10.07
2023-06-11T05:54:27.070Z,9.85
2023-06-11T05:56:58.373Z,10.13
2023-06-11T05:59:27.599Z,11.07
2023-06-11T06:01:58.290Z,9.25
2023-06-11T06:04:27.872Z,9.50
2023-06-11T06:06:57.277Z,9.07
2023-06-11T06:09:26.682Z,8.73
2023-06-11T06:11:55.697Z,8.35
2023-06-11T06:14:24.604Z,8.50
2023-06-11T06:16:57.239Z,8.50
2023-06-11T06:19:31.853Z,8.23
2023-06-11T06:22:00.875Z,7.35
2023-06-11T06:24:30.046Z,7.63
2023-06-11T06:26:59.865Z,8.23
2023-06-11T06:29:35.408Z,7.68
2023-06-11T06:32:08.621Z,7.10
2023-06-11T06:34:38.027Z,7.72
2023-06-11T06:37:09.478Z,7.07
2023-06-11T06:39:39.279Z,7.18
2023-06-11T06:42:09.146Z,7.45
2023-06-11T06:44:42.591Z,7.20
2023-06-11T06:47:13.099Z,7.82
2023-06-11T06:49:42.333Z,6.97
2023-06-11T06:52:13.438Z,7.40
2023-06-11T06:54:43.104Z,6.55
2023-06-11T06:57:13.401Z,6.63
2023-06-11T06:59:42.869Z,6.68
2023-06-11T07:02:13.630Z,7.72
2023-06-11T07:04:43.942Z,7.18
2023-06-11T07:07:13.928Z,7.45
2023-06-11T07:09:43.260Z,7.18
2023-06-11T07:12:13.249Z,6.35
2023-06-11T07:14:43.086Z,6.40
2023-06-11T07:17:13.410Z,6.18
2023-06-11T07:19:42.460Z,6.07
2023-06-11T07:22:11.473Z,6.53
2023-06-11T07:24:48.544Z,6.50
2023-06-11T07:27:19.417Z,6.78
2023-06-11T07:29:50.227Z,6.63
2023-06-11T07:32:20.599Z,7.75
2023-06-11T07:34:49.525Z,7.22
2023-06-11T07:37:18.545Z,7.47
2023-06-11T07:39:48.984Z,7.18
2023-06-11T07:42:18.760Z,7.82
2023-06-11T07:44:47.842Z,7.60
2023-06-11T07:47:16.924Z,8.15
2023-06-11T07:49:47.162Z,7.07
2023-06-11T07:52:16.869Z,7.50
2023-06-11T07:54:47.549Z,8.40
2023-06-11T07:57:17.098Z,7.05
2023-06-11T07:59:46.170Z,8.27
2023-06-11T08:02:15.963Z,7.25
2023-06-11T08:04:45.249Z,7.38
2023-06-11T08:07:15.468Z,7.82
2023-06-11T08:09:44.374Z,7.25
2023-06-11T08:12:13.923Z,6.90
2023-06-11T08:14:42.780Z,6.80
2023-06-11T08:17:11.860Z,6.43
2023-06-11T08:19:40.734Z,6.75
2023-06-11T08:22:10.086Z,6.72
2023-06-11T08:24:41.964Z,5.68
2023-06-11T08:27:11.320Z,5.15
2023-06-11T08:29:40.307Z,5.53
2023-06-11T08:32:09.894Z,5.47
2023-06-11T08:34:39.039Z,5.47
2023-06-11T08:37:09.396Z,5.68
2023-06-11T08:39:38.310Z,5.47
2023-06-11T08:42:09.826Z,5.50
2023-06-11T08:44:38.695Z,5.95
2023-06-11T08:47:08.145Z,5.38
2023-06-11T08:49:38.831Z,5.47
2023-06-11T08:52:08.782Z,5.55
2023-06-11T08:54:37.765Z,4.53
2023-06-11T08:57:10.143Z,5.22
2023-06-11T08:59:39.266Z,5.20
2023-06-11T09:02:08.789Z,5.05
2023-06-11T09:04:39.067Z,4.95
2023-06-11T09:07:15.707Z,5.30
2023-06-11T09:09:44.633Z,4.65
2023-06-11T09:12:16.402Z,4.78
2023-06-11T09:14:54.211Z,4.70
2023-06-11T09:17:23.387Z,4.80
2023-06-11T09:19:57.500Z,5.47
2023-06-11T09:22:29.778Z,4.55
2023-06-11T09:24:59.394Z,4.88
2023-06-11T09:27:31.435Z,4.35
2023-06-11T09:30:10.217Z,4.20
2023-06-11T09:32:43.200Z,4.20
2023-06-11T09:35:12.677Z,4.10
2023-06-11T09:37:45.140Z,4.30
2023-06-11T09:40:17.417Z,4.47
2023-06-11T09:42:49.076Z,3.97
2023-06-11T09:45:19.756Z,4.13
2023-06-11T09:47:50.208Z,4.30
2023-06-11T09:50:20.398Z,3.80
2023-06-11T09:52:49.306Z,4.30
2023-06-11T09:55:18.259Z,4.07
2023-06-11T09:57:48.480Z,3.92
2023-06-11T10:00:18.036Z,3.78
2023-06-11T10:02:46.937Z,3.60
2023-06-11T10:05:16.537Z,3.30
2023-06-11T10:07:49.889Z,2.92
2023-06-11T10:10:22.373Z,3.20
2023-06-11T10:12:53.226Z,3.65
2023-06-11T10:15:25.750Z,3.60
2023-06-11T10:17:56.288Z,3.42
2023-06-11T10:20:28.984Z,3.05
2023-06-11T10:23:08.665Z,3.00
2023-06-11T10:25:39.192Z,3.47
2023-06-11T10:28:11.143Z,3.30
2023-06-11T10:30:40.394Z,3.90
2023-06-11T10:33:09.731Z,3.28
2023-06-11T10:35:39.337Z,3.47
2023-06-11T10:38:09.545Z,2.83
2023-06-11T10:40:39.821Z,3.53
2023-06-11T10:43:18.611Z,3.33
2023-06-11T10:45:49.894Z,3.28
2023-06-11T10:48:30.203Z,3.03
2023-06-11T10:51:03.451Z,3.22
2023-06-11T10:53:42.655Z,3.55
2023-06-11T10:56:12.112Z,3.45
2023-06-11T10:58:43.074Z,3.05
2023-06-11T11:01:13.028Z,3.30
2023-06-11T11:03:44.786Z,3.20
2023-06-11T11:06:14.911Z,4.00
2023-06-11T11:08:43.896Z,3.38
2023-06-11T11:11:13.260Z,3.00
2023-06-11T11:13:44.666Z,3.17
2023-06-11T11:16:13.643Z,3.10
2023-06-11T11:18:42.847Z,3.30
2023-06-11T11:21:12.207Z,3.35
2023-06-11T11:23:41.089Z,2.97
2023-06-11T11:26:10.107Z,2.72
2023-06-11T11:28:39.446Z,2.92
2023-06-11T11:31:13.524Z,3.10
2023-06-11T11:33:42.620Z,3.17
2023-06-11T11:36:14.021Z,3.25
2023-06-11T11:38:43.744Z,2.92
2023-06-11T11:41:13.068Z,2.70
2023-06-11T11:43:43.849Z,3.33
2023-06-11T11:46:21.634Z,2.80
2023-06-11T11:48:50.948Z,2.97
2023-06-11T11:51:20.313Z,2.80
2023-06-11T11:53:49.536Z,3.08
2023-06-11T11:56:18.862Z,2.65
2023-06-11T11:58:48.017Z,3.00
2023-06-11T12:01:31.509Z,3.13
2023-06-11T12:04:02.579Z,3.00
2023-06-11T12:06:32.260Z,2.72
2023-06-11T12:09:01.631Z,3.03
2023-06-11T12:11:30.776Z,2.83
2023-06-11T12:13:59.569Z,3.10
2023-06-11T12:16:29.976Z,3.00
2023-06-11T12:19:10.646Z,3.25
2023-06-11T12:21:44.021Z,3.05
2023-06-11T12:24:16.524Z,2.58
2023-06-11T12:26:45.796Z,3.03
2023-06-11T12:29:14.704Z,2.90
2023-06-11T12:31:46.626Z,3.00
2023-06-11T12:34:17.176Z,3.00
2023-06-11T12:36:48.245Z,3.00
2023-06-11T12:39:17.159Z,2.97
2023-06-11T12:41:46.254Z,3.00
2023-06-11T12:44:16.862Z,3.00
2023-06-11T12:46:47.263Z,3.40
2023-06-11T12:49:16.507Z,2.90
2023-06-11T12:51:47.358Z,2.95
2023-06-11T12:54:16.599Z,2.85
2023-06-11T12:56:45.639Z,2.90
2023-06-11T12:59:16.575Z,2.63
2023-06-11T13:01:48.308Z,2.50
2023-06-11T13:04:17.424Z,2.25
2023-06-11T13:06:46.895Z,2.47
2023-06-11T13:09:16.249Z,2.67
2023-06-11T13:11:45.246Z,2.55
2023-06-11T13:14:16.768Z,2.60
2023-06-11T13:16:50.006Z,2.30
2023-06-11T13:19:19.424Z,2.67
2023-06-11T13:21:48.344Z,2.30
2023-06-11T13:24:17.571Z,2.50
2023-06-11T13:26:47.091Z,2.63
2023-06-11T13:29:16.206Z,2.40
2023-06-11T13:31:45.244Z,2.40
2023-06-11T13:34:15.659Z,2.60
2023-06-11T13:36:45.099Z,2.33
2023-06-11T13:39:14.135Z,2.70
2023-06-11T13:41:43.366Z,2.63
2023-06-11T13:44:12.466Z,2.60
2023-06-11T13:46:41.293Z,2.78
2023-06-11T13:49:10.248Z,2.22
2023-06-11T13:51:40.680Z,2.40
2023-06-11T13:54:09.818Z,2.63
2023-06-11T13:56:38.863Z,2.45
2023-06-11T13:59:07.737Z,2.42
2023-06-11T14:01:37.032Z,2.50
2023-06-11T14:04:06.455Z,2.50
2023-06-11T14:06:35.440Z,2.72
2023-06-11T14:09:05.695Z,2.58
2023-06-11T14:11:34.744Z,2.55
2023-06-11T14:14:03.872Z,2.63
2023-06-11T14:16:33.658Z,2.63
2023-06-11T14:19:02.699Z,2.83
2023-06-11T14:21:31.951Z,3.03
2023-06-11T14:24:02.013Z,2.63
2023-06-11T14:26:34.635Z,2.90
2023-06-11T14:29:04.301Z,2.72
2023-06-11T14:31:33.188Z,2.50
2023-06-11T14:34:02.842Z,2.30
2023-06-11T14:36:31.880Z,2.50
2023-06-11T14:39:01.424Z,2.30
2023-06-11T14:41:30.764Z,2.58
2023-06-11T14:44:00.696Z,2.47
2023-06-11T14:46:29.749Z,2.50
2023-06-11T14:48:58.969Z,2.38
2023-06-11T14:51:29.456Z,2.30
2023-06-11T14:53:58.589Z,2.50
2023-06-11T14:56:28.411Z,2.30
2023-06-11T14:58:57.211Z,2.22
2023-06-11T15:01:27.811Z,2.05
2023-06-11T15:03:56.757Z,2.30
2023-06-11T15:06:25.602Z,2.70
2023-06-11T15:08:54.800Z,2.38
2023-06-11T15:11:24.306Z,2.00
2023-06-11T15:13:53.175Z,2.38
2023-06-11T15:16:22.778Z,2.33
2023-06-11T15:18:53.333Z,2.72
2023-06-11T15:21:22.331Z,1.77
2023-06-11T15:23:51.436Z,1.90
2023-06-11T15:26:21.166Z,1.80
2023-06-11T15:28:50.166Z,2.08
2023-06-11T15:31:19.186Z,1.90
2023-06-11T15:33:48.258Z,1.70
2023-06-11T15:36:18.301Z,1.80
2023-06-11T15:38:47.237Z,2.30
2023-06-11T15:41:16.591Z,1.88
2023-06-11T15:43:45.544Z,1.90
2023-06-11T15:46:14.854Z,1.80
2023-06-11T15:48:44.314Z,1.80
2023-06-11T15:51:13.512Z,2.00
2023-06-11T15:53:43.538Z,1.88
2023-06-11T15:56:12.387Z,1.88
2023-06-11T15:58:41.425Z,2.03
2023-06-11T16:01:10.561Z,1.83
2023-06-11T16:03:39.833Z,1.48
2023-06-11T16:06:08.985Z,2.10
2023-06-11T16:08:38.929Z,1.95
2023-06-11T16:11:09.185Z,1.90
2023-06-11T16:13:38.092Z,1.67
2023-06-11T16:16:07.444Z,1.70
2023-06-11T16:18:36.451Z,1.60
2023-06-11T16:21:05.352Z,1.73
2023-06-11T16:23:34.526Z,1.50
2023-06-11T16:26:04.008Z,1.60
2023-06-11T16:28:34.360Z,1.67
2023-06-11T16:31:03.176Z,1.85
2023-06-11T16:33:40.757Z,1.40
2023-06-11T16:36:21.334Z,2.50
2023-06-11T16:38:51.169Z,1.80
2023-06-11T16:41:20.111Z,1.60
2023-06-11T16:43:51.581Z,1.58
2023-06-11T16:46:21.110Z,1.58
2023-06-11T16:48:53.117Z,1.73
2023-06-11T16:51:22.365Z,1.40
2023-06-11T16:53:53.225Z,1.63
2023-06-11T16:56:23.862Z,1.38
2023-06-11T16:58:55.705Z,1.55
2023-06-11T17:01:25.725Z,1.45
2023-06-11T17:03:55.041Z,1.60
2023-06-11T17:06:24.170Z,1.48
2023-06-11T17:08:53.194Z,1.52
2023-06-11T17:11:22.443Z,1.63
2023-06-11T17:13:54.613Z,1.25
2023-06-11T17:16:25.118Z,1.73
2023-06-11T17:18:54.653Z,1.70
2023-06-11T17:21:24.039Z,1.80
2023-06-11T17:23:56.960Z,1.80
2023-06-11T17:26:25.987Z,1.52
2023-06-11T17:28:54.724Z,1.80
2023-06-11T17:31:25.209Z,1.60
2023-06-11T17:33:54.691Z,1.88
2023-06-11T17:36:23.748Z,1.58
2023-06-11T17:38:53.210Z,1.42
2023-06-11T17:41:25.564Z,1.80
2023-06-11T17:43:55.041Z,1.55
2023-06-11T17:46:25.856Z,1.48
2023-06-11T17:48:55.799Z,1.65
2023-06-11T17:51:25.312Z,1.40
2023-06-11T17:53:54.816Z,1.52
2023-06-11T17:56:23.936Z,2.03
2023-06-11T17:58:53.420Z,1.70
2023-06-11T18:01:23.698Z,1.73
2023-06-11T18:03:54.858Z,1.63
2023-06-11T18:06:24.061Z,2.20
2023-06-11T18:08:53.148Z,2.25
2023-06-11T18:11:22.189Z,2.30
2023-06-11T18:13:51.188Z,2.25
2023-06-11T18:16:20.412Z,2.30
2023-06-11T18:18:49.487Z,1.70
2023-06-11T18:21:20.074Z,1.60
2023-06-11T18:23:49.986Z,1.90
2023-06-11T18:26:19.682Z,1.73
2023-06-11T18:28:57.512Z,1.23
2023-06-11T18:31:28.449Z,1.83
2023-06-11T18:33:57.526Z,1.90
2023-06-11T18:36:28.916Z,1.50
2023-06-11T18:38:58.170Z,1.48
2023-06-11T18:41:29.627Z,1.52
2023-06-11T18:44:00.449Z,1.50
2023-06-11T18:46:30.167Z,1.85
2023-06-11T18:48:59.863Z,1.58
2023-06-11T18:51:30.646Z,1.40
2023-06-11T18:54:02.569Z,1.25
2023-06-11T18:56:32.386Z,1.48
2023-06-11T18:59:02.035Z,1.80
2023-06-11T19:01:31.480Z,1.77
2023-06-11T19:04:02.042Z,1.65
2023-06-11T19:06:34.276Z,1.48
2023-06-11T19:09:04.926Z,1.80
2023-06-11T19:11:34.122Z,1.50
2023-06-11T19:14:05.892Z,1.60
2023-06-11T19:16:37.050Z,1.95
2023-06-11T19:19:06.287Z,1.80
2023-06-11T19:21:37.733Z,1.63
2023-06-11T19:24:07.626Z,1.40
2023-06-11T19:26:38.756Z,1.85
2023-06-11T19:29:07.750Z,1.77
2023-06-11T19:31:36.788Z,1.38
2023-06-11T19:34:06.282Z,1.55
2023-06-11T19:36:38.291Z,1.98
2023-06-11T19:39:07.862Z,1.75
2023-06-11T19:41:38.151Z,1.70
2023-06-11T19:44:07.761Z,1.90
2023-06-11T19:46:36.925Z,1.70
2023-06-11T19:49:06.756Z,1.83
2023-06-11T19:51:37.884Z,1.88
2023-06-11T19:54:08.390Z,1.70
2023-06-11T19:56:37.355Z,2.30
2023-06-11T19:59:06.283Z,2.00
2023-06-11T20:01:35.277Z,2.13
2023-06-11T20:04:04.723Z,3.05
2023-06-11T20:06:33.809Z,4.27
2023-06-11T20:09:05.203Z,3.50
2023-06-11T20:11:35.025Z,3.55
2023-06-11T20:14:04.020Z,3.28
2023-06-11T20:16:33.134Z,3.63
2023-06-11T20:19:03.535Z,3.72
2023-06-11T20:21:33.585Z,3.00
2023-06-11T20:24:04.318Z,2.60
2023-06-11T20:26:34.718Z,2.33
2023-06-11T20:29:05.428Z,2.17
2023-06-11T20:31:34.557Z,1.98
2023-06-11T20:34:03.437Z,2.60
2023-06-11T20:36:32.378Z,2.20
2023-06-11T20:39:01.535Z,1.80
2023-06-11T20:41:32.553Z,2.40
2023-06-11T20:44:01.877Z,2.40
2023-06-11T20:46:31.872Z,2.57
2023-06-11T20:49:01.094Z,2.10
2023-06-11T20:51:30.267Z,2.53
2023-06-11T20:53:59.240Z,2.10
2023-06-11T20:56:28.402Z,2.20
2023-06-11T20:58:58.982Z,2.33
2023-06-11T21:01:27.928Z,1.90
2023-06-11T21:03:57.269Z,2.20
2023-06-11T21:06:27.095Z,2.27
2023-06-11T21:08:56.015Z,2.30
2023-06-11T21:11:26.102Z,1.93
2023-06-11T21:14:12.012Z,2.20
2023-06-11T21:16:44.563Z,2.10
2023-06-11T21:19:14.105Z,2.17
2023-06-11T21:21:43.279Z,2.23
2023-06-11T21:24:12.736Z,2.47
2023-06-11T21:26:41.808Z,2.17
2023-06-11T21:29:11.054Z,2.43
2023-06-11T21:31:41.207Z,2.30
2023-06-11T21:34:11.992Z,2.70
2023-06-11T21:36:41.194Z,2.57
2023-06-11T21:39:10.912Z,2.53
2023-06-11T21:41:39.980Z,2.57
2023-06-11T21:44:09.328Z,2.30
2023-06-11T21:46:38.356Z,2.40
2023-06-11T21:49:07.349Z,2.70
2023-06-11T21:51:38.338Z,2.50
2023-06-11T21:54:07.761Z,2.40
2023-06-11T21:56:36.588Z,2.87
2023-06-11T21:59:05.666Z,2.67
2023-06-11T22:01:35.144Z,2.90
2023-06-11T22:04:05.310Z,2.87
2023-06-11T22:06:34.989Z,3.23
2023-06-11T22:09:05.759Z,2.77
2023-06-11T22:11:38.693Z,2.83
2023-06-11T22:14:07.888Z,2.97
2023-06-11T22:16:36.624Z,2.73
2023-06-11T22:19:05.995Z,3.07
2023-06-11T22:21:35.033Z,3.03
2023-06-11T22:24:05.849Z,3.27
2023-06-11T22:26:35.153Z,3.40
2023-06-11T22:29:04.166Z,3.40
2023-06-11T22:31:33.051Z,3.20
2023-06-11T22:34:02.298Z,3.07
2023-06-11T22:36:31.255Z,3.23
2023-06-11T22:39:00.223Z,3.80
2023-06-11T22:41:30.649Z,3.50
2023-06-11T22:43:59.605Z,3.47
2023-06-11T22:46:28.616Z,3.20
2023-06-11T22:48:58.235Z,3.17
2023-06-11T22:51:27.509Z,3.50
2023-06-11T22:53:56.388Z,3.70
2023-06-11T22:56:25.387Z,3.37
2023-06-11T22:58:55.752Z,3.47
2023-06-11T23:01:24.868Z,3.40
2023-06-11T23:03:54.169Z,2.90
2023-06-11T23:06:23.555Z,3.47
2023-06-11T23:08:52.513Z,3.73
2023-06-11T23:11:21.424Z,4.20
2023-06-11T23:13:50.499Z,3.73
2023-06-11T23:16:21.772Z,3.90
2023-06-11T23:18:54.816Z,3.57
2023-06-11T23:21:23.768Z,3.57
2023-06-11T23:23:52.894Z,3.80
2023-06-11T23:26:22.977Z,3.73
2023-06-11T23:28:52.072Z,3.90
2023-06-11T23:31:23.625Z,3.87
2023-06-11T23:33:52.830Z,3.90
2023-06-11T23:36:22.901Z,3.47
2023-06-11T23:38:52.034Z,3.90
2023-06-11T23:41:20.914Z,3.63
2023-06-11T23:43:50.193Z,3.90
2023-06-11T23:46:19.036Z,3.50
2023-06-11T23:48:49.686Z,4.20
2023-06-11T23:51:18.468Z,4.17
2023-06-11T23:53:48.024Z,4.27
2023-06-11T23:56:17.008Z,3.97
2023-06-11T23:58:46.552Z,3.90
